Time;durP1;ratioP1;P1;durP2;ratioP2;P2;SDS_P1;SDS_P2;PMS_P1;PMS_P2;Temp;Humidity;BMP_temperature;BMP_pressure;BME280_temperature;BME280_humidity;BME280_pressure;Samples;Min_cycle;Max_cycle;Signal;HPM_P1;HPM_P2
2023/09/13 00:05:31;;;;;;;31.70;26.40;;;;;;;18.76;71.02;98327.34;436370;1252;109496;-41
2023/09/13 00:15:41;;;;;;;33.20;28.00;;;;;;;18.65;71.01;98324.46;436327;1248;99237;-41
2023/09/13 00:25:47;;;;;;;33.00;25.10;;;;;;;18.60;71.12;98318.58;436338;1253;111316;-42
2023/09/13 00:35:55;;;;;;;35.00;26.60;;;;;;;18.49;71.21;98315.14;436005;1251;323400;-42
2023/09/13 00:56:09;;;;;;;32.40;28.00;;;;;;;18.21;71.73;98313.98;436485;1248;107836;-43
2023/09/13 01:06:16;;;;;;;31.40;25.80;;;;;;;18.15;72.09;98317.97;436317;1251;99316;-42
2023/09/13 01:16:21;;;;;;;38.60;31.20;;;;;;;18.13;72.23;98317.67;436251;1266;112381;-42
2023/09/13 01:26:42;;;;;;;42.60;32.10;;;;;;;17.99;72.50;98311.32;436420;1251;108593;-43
2023/09/13 01:37:05;;;;;;;37.90;27.70;;;;;;;17.84;72.95;98309.73;436645;1250;99240;31
2023/09/13 01:57:20;;;;;;;39.50;31.70;;;;;;;17.67;73.71;98300.10;434928;1253;98857;-42
2023/09/13 02:07:24;;;;;;;40.60;33.10;;;;;;;17.53;74.20;98297.02;434914;1257;111833;-42
2023/09/13 02:17:31;;;;;;;40.00;31.40;;;;;;;17.40;74.62;98288.74;435010;1253;108859;-43
2023/09/13 02:27:38;;;;;;;43.30;32.20;;;;;;;17.32;74.95;98294.55;434897;1257;99231;-43
2023/09/13 02:47:49;;;;;;;41.50;30.70;;;;;;;17.18;76.07;98291.88;434916;1258;99260;-42
2023/09/13 02:57:54;;;;;;;42.50;31.60;;;;;;;17.12;76.43;98281.15;434964;1258;111520;-41
2023/09/13 03:08:02;;;;;;;42.60;31.10;;;;;;;17.08;76.58;98278.69;435971;1257;107094;-42
2023/09/13 03:18:09;;;;;;;43.00;33.00;;;;;;;17.06;76.80;98283.61;434868;1253;99193;-41
2023/09/13 03:28:16;;;;;;;50.80;36.80;;;;;;;16.94;76.90;98283.44;435160;1257;107755;-43
2023/09/13 03:38:23;;;;;;;46.60;33.80;;;;;;;16.82;77.11;98283.48;434927;1257;97958;-42
2023/09/13 03:48:29;;;;;;;44.10;32.50;;;;;;;16.71;77.41;98276.77;435026;1257;112144;-42
2023/09/13 04:08:43;;;;;;;42.60;33.80;;;;;;;16.54;78.15;98259.17;434998;1253;99263;-42
2023/09/13 04:18:50;;;;;;;47.60;34.60;;;;;;;16.48;78.74;98261.88;435066;1252;108306;-43
2023/09/13 04:28:56;;;;;;;45.60;33.10;;;;;;;16.49;79.07;98266.89;434922;1259;99235;-42
2023/09/13 04:39:03;;;;;;;51.80;33.20;;;;;;;16.50;79.53;98270.04;434859;1257;110951;-41
2023/09/13 04:49:10;;;;;;;47.00;34.10;;;;;;;16.55;79.55;98272.68;435274;1257;107485;-42
2023/09/13 04:59:16;;;;;;;52.30;35.70;;;;;;;16.68;79.92;98269.73;434939;1259;99256;-43
2023/09/13 05:09:22;;;;;;;62.10;38.30;;;;;;;16.88;79.97;98268.20;435166;1258;107431;-42
2023/09/13 05:39:42;;;;;;;40.80;30.10;;;;;;;18.93;79.71;98267.10;436229;1257;107868;-43
2023/09/13 05:49:49;;;;;;;40.40;29.60;;;;;;;19.81;78.94;98259.97;436216;1253;97992;-41
2023/09/13 05:59:56;;;;;;;38.20;28.30;;;;;;;20.61;77.83;98261.02;435116;1253;108546;-41
2023/09/13 06:10:03;;;;;;;44.30;28.00;;;;;;;21.60;76.51;98267.67;435033;1253;99234;-42
2023/09/13 06:20:09;;;;;;;;;;;;;;;22.22;74.18;98272.88;434950;1259;110688;-41
2023/09/13 06:30:16;;;;;;;43.30;26.00;;;;;;;23.05;73.24;98281.23;434997;1259;108067;-43
2023/09/13 06:50:25;;;;;;;31.50;21.10;;;;;;;24.20;70.20;98287.17;435088;1253;108315;-40
2023/09/13 07:11:17;;;;;;;34.00;20.80;;;;;;;25.32;67.26;98295.79;435111;1259;111758;-41
2023/09/13 07:21:24;;;;;;;23.30;20.00;;;;;;;25.73;66.55;98295.02;435068;1259;109248;-42
2023/09/13 07:41:36;;;;;;;29.40;19.30;;;;;;;25.91;64.82;98304.02;435207;1253;107206;-41
2023/09/13 07:51:43;;;;;;;30.20;19.00;;;;;;;25.81;64.21;98299.92;435138;1253;99323;-42
2023/09/13 08:01:50;;;;;;;26.70;16.80;;;;;;;26.51;64.14;98292.50;435167;1253;110861;-42
2023/09/13 08:11:58;;;;;;;26.60;15.70;;;;;;;27.24;62.95;98284.05;435037;1253;107776;-41
2023/09/13 08:32:11;;;;;;;19.40;13.50;;;;;;;27.68;60.12;98281.32;435072;1253;109582;-41
2023/09/13 08:52:27;;;;;;;20.10;14.00;;;;;;;29.04;58.99;98287.45;434983;1255;110965;-43
2023/09/13 09:02:35;;;;;;;19.90;14.50;;;;;;;28.98;56.59;98283.91;435182;1254;107800;-41
2023/09/13 09:12:40;;;;;;;127.60;22.50;;;;;;;29.01;56.02;98278.01;435076;1257;99237;-43
2023/09/13 09:22:46;;;;;;;60.00;15.00;;;;;;;29.06;54.82;98272.25;435122;1259;107746;-42
2023/09/13 09:33:00;;;;;;;28.50;13.70;;;;;;;29.36;54.31;98286.83;435354;1257;99227;-41
2023/09/13 09:43:06;;;;;;;21.90;13.50;;;;;;;29.61;52.95;98278.80;435113;1256;111500;-42
2023/09/13 10:03:19;;;;;;;21.40;12.70;;;;;;;30.09;51.23;98273.50;434967;1253;99269;-41
2023/09/13 10:13:27;;;;;;;17.70;12.70;;;;;;;30.02;50.89;98267.94;435098;1257;100411;-42
2023/09/13 10:23:41;;;;;;;14.70;11.40;;;;;;;30.10;50.66;98262.15;435325;1257;99249;-41
2023/09/13 10:33:52;;;;;;;15.80;12.00;;;;;;;30.22;49.23;98258.66;435110;1259;110596;-41
2023/09/13 10:44:00;;;;;;;13.80;10.60;;;;;;;30.42;48.67;98259.40;434868;1259;108358;-42
2023/09/13 10:54:06;;;;;;;14.50;12.00;;;;;;;30.55;48.55;98255.60;435026;1259;99317;-42
2023/09/13 11:04:14;;;;;;;12.90;11.30;;;;;;;30.63;47.69;98255.41;435148;1258;109708;-42
2023/09/13 11:14:23;;;;;;;15.30;9.10;;;;;;;30.51;47.10;98254.36;434972;1257;99324;-42
2023/09/13 11:44:59;;;;;;;15.70;9.70;;;;;;;30.69;46.04;98250.71;435130;1257;99272;-41
2023/09/13 11:55:13;;;;;;;17.60;10.50;;;;;;;30.65;45.44;98254.17;435119;1257;100141;-42
2023/09/13 12:05:40;;;;;;;12.30;11.00;;;;;;;30.45;45.18;98254.83;435202;1267;101570;-42
2023/09/13 12:15:59;;;;;;;17.60;10.00;;;;;;;30.53;44.94;98259.47;434997;1256;111910;-41
2023/09/13 12:26:08;;;;;;;24.70;11.10;;;;;;;30.44;44.50;98263.86;435045;1257;109541;-41
2023/09/13 12:46:26;;;;;;;10.40;9.40;;;;;;;30.13;43.79;98257.14;435002;1256;108551;-41
2023/09/13 12:56:34;;;;;;;14.50;9.20;;;;;;;30.15;43.61;98259.65;435122;1265;99247;-42
2023/09/13 13:06:56;;;;;;;12.40;8.90;;;;;;;30.20;43.71;98250.52;435237;1258;113142;-41
2023/09/13 13:17:02;;;;;;;10.90;9.30;;;;;;;30.12;43.48;98237.42;435053;1261;107882;-41
2023/09/13 13:27:09;;;;;;;10.20;9.20;;;;;;;30.10;43.29;98225.94;435159;1257;99375;-41
2023/09/13 13:37:17;;;;;;;12.00;9.70;;;;;;;30.05;43.43;98208.63;435214;1256;108338;-41
2023/09/13 13:57:38;;;;;;;10.80;9.70;;;;;;;29.77;43.53;98195.35;435018;1254;111037;-41
2023/09/13 14:07:44;;;;;;;11.00;9.90;;;;;;;29.77;43.58;98191.30;435069;1267;106856;-40
2023/09/13 14:17:50;;;;;;;;;;;;;;;29.58;43.45;98176.77;435101;1257;99864;-41
2023/09/13 14:38:18;;;;;;;12.50;9.90;;;;;;;28.78;43.95;98173.68;435212;1257;99387;-41
2023/09/13 14:48:25;;;;;;;44.40;12.00;;;;;;;28.52;44.66;98179.15;434862;1254;113436;-42
2023/09/13 15:08:37;;;;;;;;;;;;;;;28.25;45.51;98179.30;435182;1257;99044;-43
2023/09/13 15:18:44;;;;;;;18.20;11.30;;;;;;;27.92;46.72;98182.98;434970;1253;107553;-42
2023/09/13 15:38:58;;;;;;;25.10;12.00;;;;;;;27.14;48.21;98178.58;435063;1266;112132;-42
2023/09/13 15:49:08;;;;;;;19.00;13.50;;;;;;;26.73;48.79;98185.92;435024;1254;107848;-41
2023/09/13 16:09:22;;;;;;;52.30;17.50;;;;;;;25.92;51.08;98171.51;435166;1257;107748;-45
2023/09/13 16:29:37;;;;;;;21.20;15.10;;;;;;;25.31;53.30;98196.23;435074;1257;111497;-41
2023/09/13 16:39:43;;;;;;;41.00;15.30;;;;;;;25.03;53.58;98242.21;435049;1253;107346;-41
2023/09/13 16:49:49;;;;;;;15.30;11.50;;;;;;;24.64;53.58;98264.75;435051;1257;99996;-44
2023/09/13 16:59:56;;;;;;;18.20;11.30;;;;;;;24.12;53.99;98296.17;435038;1257;108576;-41
2023/09/13 17:10:04;;;;;;;19.10;14.00;;;;;;;23.30;55.92;98313.69;435059;1256;99225;-44
2023/09/13 17:20:12;;;;;;;17.00;14.10;;;;;;;22.44;57.99;98303.36;435131;1257;111356;-44
2023/09/13 17:30:17;;;;;;;26.30;18.00;;;;;;;21.74;60.08;98326.47;435137;1256;107259;-43
2023/09/13 17:50:26;;;;;;;26.50;17.10;;;;;;;21.09;63.80;98355.17;435068;1256;107941;-43
2023/09/13 18:00:32;;;;;;;21.40;15.40;;;;;;;21.02;65.16;98378.77;435054;1257;98925;-43
2023/09/13 18:10:37;;;;;;;23.80;16.00;;;;;;;20.74;66.30;98350.48;434941;1256;113427;-44
2023/09/13 18:20:41;;;;;;;18.90;15.20;;;;;;;20.65;67.24;98333.62;435031;1257;107195;-43
2023/09/13 18:30:46;;;;;;;22.70;15.10;;;;;;;20.57;68.13;98318.63;435119;1253;99295;-44
2023/09/13 18:51:02;;;;;;;23.60;18.20;;;;;;;20.33;69.19;98340.13;435071;1257;99867;-42
2023/09/13 19:01:10;;;;;;;27.20;18.70;;;;;;;20.17;69.94;98343.04;437038;1257;111600;-41
2023/09/13 19:11:18;;;;;;;27.20;17.60;;;;;;;20.03;70.20;98355.52;436844;1257;108345;-42
2023/09/13 19:31:32;;;;;;;21.60;15.50;;;;;;;19.87;71.37;98383.66;435891;1257;107585;-41
2023/09/13 19:41:38;;;;;;;22.40;17.50;;;;;;;19.90;71.76;98392.30;435098;1257;99272;-42
2023/09/13 19:51:44;;;;;;;23.80;16.10;;;;;;;19.90;72.25;98401.55;435158;1257;110764;-40
2023/09/13 20:01:51;;;;;;;23.60;16.80;;;;;;;19.89;72.39;98414.29;435192;1256;108582;-42
2023/09/13 20:32:12;;;;;;;19.40;16.40;;;;;;;19.94;73.54;98443.33;434814;1259;99327;-42
2023/09/13 20:42:20;;;;;;;22.10;19.20;;;;;;;19.78;73.78;98469.84;435049;1257;112977;-41
2023/09/13 20:52:27;;;;;;;26.40;16.00;;;;;;;19.72;74.33;98495.55;435220;1252;107632;-41
2023/09/13 21:02:35;;;;;;;20.10;13.60;;;;;;;19.68;74.53;98508.25;435073;1257;99342;-41
2023/09/13 21:12:43;;;;;;;17.30;13.70;;;;;;;19.71;74.78;98509.55;435036;1253;107209;-42
2023/09/13 21:22:50;;;;;;;17.10;15.20;;;;;;;19.45;75.00;98514.90;434952;1257;99244;-42
2023/09/13 21:43:02;;;;;;;21.50;16.00;;;;;;;19.35;75.75;98521.96;435051;1257;110213;-42
2023/09/13 21:53:10;;;;;;;22.90;15.60;;;;;;;19.25;76.40;98518.77;434867;1253;99961;-41
2023/09/13 22:03:17;;;;;;;24.80;16.50;;;;;;;19.28;76.85;98511.54;435038;1253;108385;-42
2023/09/13 22:13:23;;;;;;;17.80;15.00;;;;;;;19.45;77.36;98502.52;435075;1252;99237;-42
2023/09/13 22:23:30;;;;;;;21.30;15.60;;;;;;;19.48;77.30;98497.31;434994;1253;110834;-45
2023/09/13 22:33:39;;;;;;;21.80;15.50;;;;;;;19.30;77.40;98495.32;434997;1257;107787;-42
2023/09/13 22:43:50;;;;;;;20.50;15.70;;;;;;;19.23;77.68;98502.50;434842;1256;97925;-41
2023/09/13 23:04:03;;;;;;;18.20;14.80;;;;;;;19.21;78.34;98518.02;434909;1253;99314;-43
2023/09/13 23:14:09;;;;;;;19.60;15.70;;;;;;;19.21;78.61;98518.02;434968;1257;111559;-41
2023/09/13 23:24:16;;;;;;;15.00;13.60;;;;;;;19.23;78.81;98507.00;435011;1254;108841;-42
2023/09/13 23:34:24;;;;;;;12.30;11.00;;;;;;;19.10;79.18;98506.04;434968;1257;99166;-43
2023/09/13 23:44:31;;;;;;;12.00;9.90;;;;;;;19.00;79.64;98514.16;434996;1256;108538;-42
2023/09/13 23:54:36;;;;;;;9.80;8.60;;;;;;;18.97;79.55;98532.20;434894;1256;99218;-42
